sensor_id;sensor_type;location;lat;lon;timestamp;P1;durP1;ratioP1;P2;durP2;ratioP2
28625;SDS011;18905;42.668;23.364;2023-07-02T00:00:02;24.80;;;10.40;;
28625;SDS011;18905;42.668;23.364;2023-07-02T00:02:30;24.13;;;13.00;;
28625;SDS011;18905;42.668;23.364;2023-07-02T00:04:55;25.15;;;12.07;;
28625;SDS011;18905;42.668;23.364;2023-07-02T00:07:21;24.13;;;11.45;;
28625;SDS011;18905;42.668;23.364;2023-07-02T00:09:46;23.88;;;11.68;;
28625;SDS011;18905;42.668;23.364;2023-07-02T00:12:11;20.63;;;10.90;;
28625;SDS011;18905;42.668;23.364;2023-07-02T00:14:38;19.75;;;10.27;;
28625;SDS011;18905;42.668;23.364;2023-07-02T00:17:03;20.65;;;11.55;;
28625;SDS011;18905;42.668;23.364;2023-07-02T00:19:29;21.17;;;10.40;;
28625;SDS011;18905;42.668;23.364;2023-07-02T00:21:54;24.00;;;12.00;;
28625;SDS011;18905;42.668;23.364;2023-07-02T00:24:20;26.23;;;12.18;;
28625;SDS011;18905;42.668;23.364;2023-07-02T00:26:45;19.30;;;11.13;;
28625;SDS011;18905;42.668;23.364;2023-07-02T00:29:11;20.88;;;10.60;;
28625;SDS011;18905;42.668;23.364;2023-07-02T00:31:36;19.25;;;10.52;;
28625;SDS011;18905;42.668;23.364;2023-07-02T00:34:02;22.75;;;11.07;;
28625;SDS011;18905;42.668;23.364;2023-07-02T00:36:29;20.45;;;10.43;;
28625;SDS011;18905;42.668;23.364;2023-07-02T00:38:55;16.83;;;10.48;;
28625;SDS011;18905;42.668;23.364;2023-07-02T00:41:21;20.58;;;11.43;;
28625;SDS011;18905;42.668;23.364;2023-07-02T00:43:47;18.67;;;10.60;;
28625;SDS011;18905;42.668;23.364;2023-07-02T00:46:14;20.17;;;10.73;;
28625;SDS011;18905;42.668;23.364;2023-07-02T00:48:48;20.40;;;10.60;;
28625;SDS011;18905;42.668;23.364;2023-07-02T00:51:19;17.77;;;10.10;;
28625;SDS011;18905;42.668;23.364;2023-07-02T00:53:46;17.30;;;10.15;;
28625;SDS011;18905;42.668;23.364;2023-07-02T00:56:14;20.83;;;9.98;;
28625;SDS011;18905;42.668;23.364;2023-07-02T00:58:40;23.83;;;10.30;;
28625;SDS011;18905;42.668;23.364;2023-07-02T01:06:24;12.52;;;7.80;;
28625;SDS011;18905;42.668;23.364;2023-07-02T01:08:51;13.65;;;8.75;;
28625;SDS011;18905;42.668;23.364;2023-07-02T01:11:21;13.93;;;8.40;;
28625;SDS011;18905;42.668;23.364;2023-07-02T01:13:51;13.07;;;8.27;;
28625;SDS011;18905;42.668;23.364;2023-07-02T01:16:20;12.77;;;7.60;;
28625;SDS011;18905;42.668;23.364;2023-07-02T01:18:46;12.77;;;7.82;;
28625;SDS011;18905;42.668;23.364;2023-07-02T01:21:13;14.27;;;7.88;;
28625;SDS011;18905;42.668;23.364;2023-07-02T01:23:39;16.10;;;8.73;;
28625;SDS011;18905;42.668;23.364;2023-07-02T01:26:04;15.27;;;8.00;;
28625;SDS011;18905;42.668;23.364;2023-07-02T01:28:36;14.80;;;8.50;;
28625;SDS011;18905;42.668;23.364;2023-07-02T01:31:03;13.20;;;7.97;;
28625;SDS011;18905;42.668;23.364;2023-07-02T01:33:30;12.70;;;8.40;;
28625;SDS011;18905;42.668;23.364;2023-07-02T01:35:56;14.43;;;7.53;;
28625;SDS011;18905;42.668;23.364;2023-07-02T01:38:21;11.05;;;7.55;;
28625;SDS011;18905;42.668;23.364;2023-07-02T01:40:47;12.25;;;7.78;;
28625;SDS011;18905;42.668;23.364;2023-07-02T01:43:13;17.45;;;8.48;;
28625;SDS011;18905;42.668;23.364;2023-07-02T01:45:38;17.83;;;9.60;;
28625;SDS011;18905;42.668;23.364;2023-07-02T01:48:04;21.90;;;9.80;;
28625;SDS011;18905;42.668;23.364;2023-07-02T01:50:29;17.38;;;8.93;;
28625;SDS011;18905;42.668;23.364;2023-07-02T01:52:54;18.20;;;9.90;;
28625;SDS011;18905;42.668;23.364;2023-07-02T01:55:20;18.45;;;9.85;;
28625;SDS011;18905;42.668;23.364;2023-07-02T01:57:45;15.38;;;9.07;;
28625;SDS011;18905;42.668;23.364;2023-07-02T02:00:11;23.45;;;9.48;;
28625;SDS011;18905;42.668;23.364;2023-07-02T02:02:37;15.07;;;8.88;;
28625;SDS011;18905;42.668;23.364;2023-07-02T02:05:02;18.27;;;10.20;;
28625;SDS011;18905;42.668;23.364;2023-07-02T02:07:28;19.05;;;8.82;;
28625;SDS011;18905;42.668;23.364;2023-07-02T02:09:53;20.25;;;10.15;;
28625;SDS011;18905;42.668;23.364;2023-07-02T02:12:19;19.45;;;10.20;;
28625;SDS011;18905;42.668;23.364;2023-07-02T02:14:44;18.92;;;10.32;;
28625;SDS011;18905;42.668;23.364;2023-07-02T02:17:10;29.27;;;10.02;;
28625;SDS011;18905;42.668;23.364;2023-07-02T02:19:35;25.23;;;10.48;;
28625;SDS011;18905;42.668;23.364;2023-07-02T02:22:00;24.05;;;9.88;;
28625;SDS011;18905;42.668;23.364;2023-07-02T02:24:26;25.85;;;10.80;;
28625;SDS011;18905;42.668;23.364;2023-07-02T02:26:51;17.58;;;9.00;;
28625;SDS011;18905;42.668;23.364;2023-07-02T02:29:17;17.75;;;8.45;;
28625;SDS011;18905;42.668;23.364;2023-07-02T02:31:42;18.48;;;9.55;;
28625;SDS011;18905;42.668;23.364;2023-07-02T02:34:08;16.30;;;9.55;;
28625;SDS011;18905;42.668;23.364;2023-07-02T02:36:34;20.63;;;9.95;;
28625;SDS011;18905;42.668;23.364;2023-07-02T02:38:59;16.92;;;9.57;;
28625;SDS011;18905;42.668;23.364;2023-07-02T02:41:25;16.15;;;9.20;;
28625;SDS011;18905;42.668;23.364;2023-07-02T02:43:50;15.98;;;8.98;;
28625;SDS011;18905;42.668;23.364;2023-07-02T02:46:21;18.45;;;8.70;;
28625;SDS011;18905;42.668;23.364;2023-07-02T02:48:48;17.63;;;8.98;;
28625;SDS011;18905;42.668;23.364;2023-07-02T02:51:14;18.23;;;9.38;;
28625;SDS011;18905;42.668;23.364;2023-07-02T02:53:39;18.73;;;9.85;;
28625;SDS011;18905;42.668;23.364;2023-07-02T02:56:04;16.98;;;10.02;;
28625;SDS011;18905;42.668;23.364;2023-07-02T02:58:30;17.92;;;10.60;;
28625;SDS011;18905;42.668;23.364;2023-07-02T03:00:55;22.20;;;9.65;;
28625;SDS011;18905;42.668;23.364;2023-07-02T03:03:21;19.17;;;9.55;;
28625;SDS011;18905;42.668;23.364;2023-07-02T03:05:49;16.50;;;9.27;;
28625;SDS011;18905;42.668;23.364;2023-07-02T03:08:14;16.55;;;9.18;;
28625;SDS011;18905;42.668;23.364;2023-07-02T03:10:40;21.65;;;9.45;;
28625;SDS011;18905;42.668;23.364;2023-07-02T03:13:05;21.92;;;9.95;;
28625;SDS011;18905;42.668;23.364;2023-07-02T03:15:31;19.27;;;9.82;;
28625;SDS011;18905;42.668;23.364;2023-07-02T03:17:56;23.73;;;10.65;;
28625;SDS011;18905;42.668;23.364;2023-07-02T03:20:21;18.13;;;9.52;;
28625;SDS011;18905;42.668;23.364;2023-07-02T03:22:47;17.92;;;9.65;;
28625;SDS011;18905;42.668;23.364;2023-07-02T03:25:12;18.38;;;9.45;;
28625;SDS011;18905;42.668;23.364;2023-07-02T03:27:38;14.50;;;8.95;;
28625;SDS011;18905;42.668;23.364;2023-07-02T03:30:03;16.50;;;9.52;;
28625;SDS011;18905;42.668;23.364;2023-07-02T03:32:29;19.48;;;9.13;;
28625;SDS011;18905;42.668;23.364;2023-07-02T03:34:55;15.63;;;8.73;;
28625;SDS011;18905;42.668;23.364;2023-07-02T03:37:20;14.98;;;9.10;;
28625;SDS011;18905;42.668;23.364;2023-07-02T03:39:45;18.50;;;9.52;;
28625;SDS011;18905;42.668;23.364;2023-07-02T03:42:11;19.23;;;9.65;;
28625;SDS011;18905;42.668;23.364;2023-07-02T03:44:36;23.52;;;9.40;;
28625;SDS011;18905;42.668;23.364;2023-07-02T03:47:02;18.98;;;9.52;;
28625;SDS011;18905;42.668;23.364;2023-07-02T03:49:27;18.95;;;9.82;;
28625;SDS011;18905;42.668;23.364;2023-07-02T03:51:54;21.83;;;10.05;;
28625;SDS011;18905;42.668;23.364;2023-07-02T03:54:19;19.23;;;9.27;;
28625;SDS011;18905;42.668;23.364;2023-07-02T03:56:45;16.65;;;10.00;;
28625;SDS011;18905;42.668;23.364;2023-07-02T03:59:10;19.08;;;10.10;;
28625;SDS011;18905;42.668;23.364;2023-07-02T04:01:36;18.35;;;10.20;;
28625;SDS011;18905;42.668;23.364;2023-07-02T04:04:01;20.10;;;10.55;;
28625;SDS011;18905;42.668;23.364;2023-07-02T04:06:27;18.63;;;10.70;;
28625;SDS011;18905;42.668;23.364;2023-07-02T04:08:52;21.63;;;11.13;;
28625;SDS011;18905;42.668;23.364;2023-07-02T04:11:17;17.83;;;10.15;;
28625;SDS011;18905;42.668;23.364;2023-07-02T04:13:43;17.05;;;10.63;;
28625;SDS011;18905;42.668;23.364;2023-07-02T04:16:08;20.20;;;10.02;;
28625;SDS011;18905;42.668;23.364;2023-07-02T04:18:34;18.73;;;10.63;;
28625;SDS011;18905;42.668;23.364;2023-07-02T04:21:00;18.60;;;10.90;;
28625;SDS011;18905;42.668;23.364;2023-07-02T04:23:26;21.42;;;11.70;;
28625;SDS011;18905;42.668;23.364;2023-07-02T04:25:51;22.50;;;11.13;;
28625;SDS011;18905;42.668;23.364;2023-07-02T04:28:17;22.15;;;12.00;;
28625;SDS011;18905;42.668;23.364;2023-07-02T04:30:42;17.80;;;10.77;;
28625;SDS011;18905;42.668;23.364;2023-07-02T04:33:08;14.85;;;9.35;;
28625;SDS011;18905;42.668;23.364;2023-07-02T04:35:33;20.85;;;10.63;;
28625;SDS011;18905;42.668;23.364;2023-07-02T04:37:59;15.45;;;10.88;;
28625;SDS011;18905;42.668;23.364;2023-07-02T04:40:26;16.40;;;10.40;;
28625;SDS011;18905;42.668;23.364;2023-07-02T04:42:52;21.48;;;10.35;;
28625;SDS011;18905;42.668;23.364;2023-07-02T04:45:22;25.35;;;11.20;;
28625;SDS011;18905;42.668;23.364;2023-07-02T04:47:49;22.92;;;11.32;;
28625;SDS011;18905;42.668;23.364;2023-07-02T04:50:15;17.50;;;10.68;;
28625;SDS011;18905;42.668;23.364;2023-07-02T04:52:41;15.10;;;9.63;;
28625;SDS011;18905;42.668;23.364;2023-07-02T04:55:06;21.67;;;10.27;;
28625;SDS011;18905;42.668;23.364;2023-07-02T04:57:32;20.88;;;10.50;;
28625;SDS011;18905;42.668;23.364;2023-07-02T04:59:57;22.20;;;10.73;;
28625;SDS011;18905;42.668;23.364;2023-07-02T05:02:23;20.20;;;9.65;;
28625;SDS011;18905;42.668;23.364;2023-07-02T05:04:48;17.73;;;9.98;;
28625;SDS011;18905;42.668;23.364;2023-07-02T05:07:15;18.33;;;9.23;;
28625;SDS011;18905;42.668;23.364;2023-07-02T05:09:41;19.20;;;10.40;;
28625;SDS011;18905;42.668;23.364;2023-07-02T05:12:06;19.63;;;9.70;;
28625;SDS011;18905;42.668;23.364;2023-07-02T05:14:32;18.65;;;9.93;;
28625;SDS011;18905;42.668;23.364;2023-07-02T05:16:57;22.80;;;10.63;;
28625;SDS011;18905;42.668;23.364;2023-07-02T05:19:23;19.42;;;10.20;;
28625;SDS011;18905;42.668;23.364;2023-07-02T05:21:48;18.02;;;10.57;;
28625;SDS011;18905;42.668;23.364;2023-07-02T05:24:13;20.30;;;10.10;;
28625;SDS011;18905;42.668;23.364;2023-07-02T05:26:39;15.65;;;10.05;;
28625;SDS011;18905;42.668;23.364;2023-07-02T05:29:04;21.88;;;11.68;;
28625;SDS011;18905;42.668;23.364;2023-07-02T05:31:30;23.45;;;10.85;;
28625;SDS011;18905;42.668;23.364;2023-07-02T05:33:56;17.88;;;10.73;;
28625;SDS011;18905;42.668;23.364;2023-07-02T05:36:21;25.73;;;11.40;;
28625;SDS011;18905;42.668;23.364;2023-07-02T05:38:46;18.77;;;10.65;;
28625;SDS011;18905;42.668;23.364;2023-07-02T05:41:19;20.88;;;11.70;;
28625;SDS011;18905;42.668;23.364;2023-07-02T05:43:45;20.50;;;12.05;;
28625;SDS011;18905;42.668;23.364;2023-07-02T05:46:10;19.38;;;11.27;;
28625;SDS011;18905;42.668;23.364;2023-07-02T05:48:37;18.13;;;11.23;;
28625;SDS011;18905;42.668;23.364;2023-07-02T05:51:02;23.25;;;11.43;;
28625;SDS011;18905;42.668;23.364;2023-07-02T05:53:28;18.42;;;11.02;;
28625;SDS011;18905;42.668;23.364;2023-07-02T05:55:53;22.50;;;10.85;;
28625;SDS011;18905;42.668;23.364;2023-07-02T05:58:19;17.88;;;11.20;;
28625;SDS011;18905;42.668;23.364;2023-07-02T06:00:44;19.80;;;11.20;;
28625;SDS011;18905;42.668;23.364;2023-07-02T06:03:14;16.48;;;10.00;;
28625;SDS011;18905;42.668;23.364;2023-07-02T06:05:48;20.90;;;10.50;;
28625;SDS011;18905;42.668;23.364;2023-07-02T06:08:17;15.48;;;9.98;;
28625;SDS011;18905;42.668;23.364;2023-07-02T06:10:43;18.13;;;9.48;;
28625;SDS011;18905;42.668;23.364;2023-07-02T06:13:11;20.65;;;9.18;;
28625;SDS011;18905;42.668;23.364;2023-07-02T06:15:36;15.82;;;9.23;;
28625;SDS011;18905;42.668;23.364;2023-07-02T06:18:02;17.65;;;9.43;;
28625;SDS011;18905;42.668;23.364;2023-07-02T06:20:27;16.60;;;9.13;;
28625;SDS011;18905;42.668;23.364;2023-07-02T06:22:52;20.08;;;9.13;;
28625;SDS011;18905;42.668;23.364;2023-07-02T06:25:18;18.40;;;10.02;;
28625;SDS011;18905;42.668;23.364;2023-07-02T06:27:43;19.88;;;8.75;;
28625;SDS011;18905;42.668;23.364;2023-07-02T06:30:08;14.35;;;8.30;;
28625;SDS011;18905;42.668;23.364;2023-07-02T06:32:35;17.23;;;9.35;;
28625;SDS011;18905;42.668;23.364;2023-07-02T06:35:00;19.50;;;9.18;;
28625;SDS011;18905;42.668;23.364;2023-07-02T06:37:26;19.23;;;9.05;;
28625;SDS011;18905;42.668;23.364;2023-07-02T06:39:51;16.88;;;8.48;;
28625;SDS011;18905;42.668;23.364;2023-07-02T06:42:17;17.58;;;9.65;;
28625;SDS011;18905;42.668;23.364;2023-07-02T06:44:42;14.57;;;8.88;;
28625;SDS011;18905;42.668;23.364;2023-07-02T06:47:08;18.27;;;9.82;;
28625;SDS011;18905;42.668;23.364;2023-07-02T06:49:34;17.63;;;9.00;;
28625;SDS011;18905;42.668;23.364;2023-07-02T06:51:59;17.95;;;9.23;;
28625;SDS011;18905;42.668;23.364;2023-07-02T06:54:27;15.15;;;9.00;;
28625;SDS011;18905;42.668;23.364;2023-07-02T06:56:52;17.30;;;9.35;;
28625;SDS011;18905;42.668;23.364;2023-07-02T06:59:19;18.20;;;9.63;;
28625;SDS011;18905;42.668;23.364;2023-07-02T07:01:45;17.55;;;10.38;;
28625;SDS011;18905;42.668;23.364;2023-07-02T07:04:10;20.63;;;9.10;;
28625;SDS011;18905;42.668;23.364;2023-07-02T07:06:36;14.10;;;9.13;;
28625;SDS011;18905;42.668;23.364;2023-07-02T07:09:02;17.00;;;9.60;;
28625;SDS011;18905;42.668;23.364;2023-07-02T07:11:27;16.00;;;8.90;;
28625;SDS011;18905;42.668;23.364;2023-07-02T07:13:53;16.85;;;9.00;;
28625;SDS011;18905;42.668;23.364;2023-07-02T07:16:18;20.70;;;10.40;;
28625;SDS011;18905;42.668;23.364;2023-07-02T07:18:44;14.57;;;9.43;;
28625;SDS011;18905;42.668;23.364;2023-07-02T07:21:09;16.52;;;9.60;;
28625;SDS011;18905;42.668;23.364;2023-07-02T07:23:35;19.45;;;9.57;;
28625;SDS011;18905;42.668;23.364;2023-07-02T07:26:00;20.00;;;9.60;;
28625;SDS011;18905;42.668;23.364;2023-07-02T07:28:25;19.67;;;9.38;;
28625;SDS011;18905;42.668;23.364;2023-07-02T07:30:51;15.45;;;8.55;;
28625;SDS011;18905;42.668;23.364;2023-07-02T07:33:16;15.48;;;9.25;;
28625;SDS011;18905;42.668;23.364;2023-07-02T07:35:42;14.75;;;8.35;;
28625;SDS011;18905;42.668;23.364;2023-07-02T07:38:07;21.45;;;8.82;;
28625;SDS011;18905;42.668;23.364;2023-07-02T07:40:32;15.43;;;8.32;;
28625;SDS011;18905;42.668;23.364;2023-07-02T07:42:58;15.25;;;8.48;;
28625;SDS011;18905;42.668;23.364;2023-07-02T07:45:23;15.35;;;8.90;;
28625;SDS011;18905;42.668;23.364;2023-07-02T07:47:49;18.85;;;8.85;;
28625;SDS011;18905;42.668;23.364;2023-07-02T07:50:14;17.33;;;9.30;;
28625;SDS011;18905;42.668;23.364;2023-07-02T07:52:40;18.30;;;9.50;;
28625;SDS011;18905;42.668;23.364;2023-07-02T07:55:06;19.58;;;9.40;;
28625;SDS011;18905;42.668;23.364;2023-07-02T07:57:32;16.02;;;9.30;;
28625;SDS011;18905;42.668;23.364;2023-07-02T07:59:58;15.13;;;9.15;;
28625;SDS011;18905;42.668;23.364;2023-07-02T08:02:23;20.15;;;9.85;;
28625;SDS011;18905;42.668;23.364;2023-07-02T08:04:49;19.73;;;10.05;;
28625;SDS011;18905;42.668;23.364;2023-07-02T08:07:14;19.05;;;9.98;;
28625;SDS011;18905;42.668;23.364;2023-07-02T08:09:39;21.27;;;8.98;;
28625;SDS011;18905;42.668;23.364;2023-07-02T08:12:05;18.15;;;9.20;;
28625;SDS011;18905;42.668;23.364;2023-07-02T08:14:30;15.98;;;9.38;;
28625;SDS011;18905;42.668;23.364;2023-07-02T08:16:56;15.98;;;9.40;;
28625;SDS011;18905;42.668;23.364;2023-07-02T08:19:21;12.52;;;7.75;;
28625;SDS011;18905;42.668;23.364;2023-07-02T08:21:47;12.60;;;7.70;;
28625;SDS011;18905;42.668;23.364;2023-07-02T08:24:12;11.95;;;7.72;;
28625;SDS011;18905;42.668;23.364;2023-07-02T08:26:38;13.05;;;8.25;;
28625;SDS011;18905;42.668;23.364;2023-07-02T08:29:04;14.02;;;7.97;;
28625;SDS011;18905;42.668;23.364;2023-07-02T08:31:29;16.08;;;7.65;;
28625;SDS011;18905;42.668;23.364;2023-07-02T08:33:55;13.27;;;8.13;;
28625;SDS011;18905;42.668;23.364;2023-07-02T08:36:20;15.45;;;7.35;;
28625;SDS011;18905;42.668;23.364;2023-07-02T08:38:45;15.05;;;7.28;;
28625;SDS011;18905;42.668;23.364;2023-07-02T08:41:11;10.30;;;6.80;;
28625;SDS011;18905;42.668;23.364;2023-07-02T08:43:37;11.18;;;7.03;;
28625;SDS011;18905;42.668;23.364;2023-07-02T08:46:02;13.73;;;7.82;;
28625;SDS011;18905;42.668;23.364;2023-07-02T08:48:28;13.32;;;7.85;;
28625;SDS011;18905;42.668;23.364;2023-07-02T08:50:55;13.07;;;7.13;;
28625;SDS011;18905;42.668;23.364;2023-07-02T08:53:20;11.27;;;6.75;;
28625;SDS011;18905;42.668;23.364;2023-07-02T08:55:50;12.20;;;7.70;;
28625;SDS011;18905;42.668;23.364;2023-07-02T08:58:16;11.15;;;6.25;;
28625;SDS011;18905;42.668;23.364;2023-07-02T09:01:03;12.05;;;6.30;;
28625;SDS011;18905;42.668;23.364;2023-07-02T09:03:34;10.32;;;6.38;;
28625;SDS011;18905;42.668;23.364;2023-07-02T09:06:02;10.82;;;6.70;;
28625;SDS011;18905;42.668;23.364;2023-07-02T09:08:28;13.23;;;6.25;;
28625;SDS011;18905;42.668;23.364;2023-07-02T09:10:54;10.55;;;6.72;;
28625;SDS011;18905;42.668;23.364;2023-07-02T09:13:29;9.82;;;6.85;;
28625;SDS011;18905;42.668;23.364;2023-07-02T09:15:55;10.05;;;6.20;;
28625;SDS011;18905;42.668;23.364;2023-07-02T09:18:21;12.07;;;6.85;;
28625;SDS011;18905;42.668;23.364;2023-07-02T09:20:50;9.68;;;6.60;;
28625;SDS011;18905;42.668;23.364;2023-07-02T09:23:16;11.75;;;6.72;;
28625;SDS011;18905;42.668;23.364;2023-07-02T09:25:42;11.02;;;7.07;;
28625;SDS011;18905;42.668;23.364;2023-07-02T09:28:21;11.20;;;6.68;;
28625;SDS011;18905;42.668;23.364;2023-07-02T09:30:51;16.15;;;7.47;;
28625;SDS011;18905;42.668;23.364;2023-07-02T09:33:23;12.00;;;8.03;;
28625;SDS011;18905;42.668;23.364;2023-07-02T09:35:50;13.75;;;7.07;;
28625;SDS011;18905;42.668;23.364;2023-07-02T09:38:16;13.68;;;7.50;;
28625;SDS011;18905;42.668;23.364;2023-07-02T09:40:45;13.68;;;7.65;;
28625;SDS011;18905;42.668;23.364;2023-07-02T09:43:12;13.52;;;7.32;;
28625;SDS011;18905;42.668;23.364;2023-07-02T09:45:41;10.60;;;6.45;;
28625;SDS011;18905;42.668;23.364;2023-07-02T09:48:08;9.77;;;7.25;;
28625;SDS011;18905;42.668;23.364;2023-07-02T09:50:35;11.57;;;6.78;;
28625;SDS011;18905;42.668;23.364;2023-07-02T09:53:02;11.13;;;6.82;;
28625;SDS011;18905;42.668;23.364;2023-07-02T09:55:28;13.18;;;7.22;;
28625;SDS011;18905;42.668;23.364;2023-07-02T09:57:54;10.32;;;6.60;;
28625;SDS011;18905;42.668;23.364;2023-07-02T10:00:19;12.48;;;7.05;;
28625;SDS011;18905;42.668;23.364;2023-07-02T10:02:48;10.40;;;6.68;;
28625;SDS011;18905;42.668;23.364;2023-07-02T10:07:55;9.45;;;5.72;;
28625;SDS011;18905;42.668;23.364;2023-07-02T10:12:56;18.92;;;7.75;;
28625;SDS011;18905;42.668;23.364;2023-07-02T10:15:26;14.55;;;7.05;;
28625;SDS011;18905;42.668;23.364;2023-07-02T10:17:56;21.40;;;7.88;;
28625;SDS011;18905;42.668;23.364;2023-07-02T10:20:33;25.90;;;8.18;;
28625;SDS011;18905;42.668;23.364;2023-07-02T10:23:05;9.60;;;6.65;;
28625;SDS011;18905;42.668;23.364;2023-07-02T10:25:33;13.52;;;7.22;;
28625;SDS011;18905;42.668;23.364;2023-07-02T10:28:13;10.95;;;6.25;;
28625;SDS011;18905;42.668;23.364;2023-07-02T10:30:39;9.43;;;6.60;;
28625;SDS011;18905;42.668;23.364;2023-07-02T10:33:08;15.02;;;6.70;;
28625;SDS011;18905;42.668;23.364;2023-07-02T10:35:37;11.32;;;6.30;;
28625;SDS011;18905;42.668;23.364;2023-07-02T10:38:04;13.30;;;7.13;;
28625;SDS011;18905;42.668;23.364;2023-07-02T10:40:33;9.05;;;6.40;;
28625;SDS011;18905;42.668;23.364;2023-07-02T10:42:59;12.10;;;6.25;;
28625;SDS011;18905;42.668;23.364;2023-07-02T10:45:31;9.23;;;5.90;;
28625;SDS011;18905;42.668;23.364;2023-07-02T10:47:58;10.10;;;6.80;;
28625;SDS011;18905;42.668;23.364;2023-07-02T10:50:24;9.43;;;6.38;;
28625;SDS011;18905;42.668;23.364;2023-07-02T10:52:50;10.70;;;6.35;;
28625;SDS011;18905;42.668;23.364;2023-07-02T10:55:19;10.77;;;6.15;;
28625;SDS011;18905;42.668;23.364;2023-07-02T10:57:46;9.90;;;5.90;;
28625;SDS011;18905;42.668;23.364;2023-07-02T11:00:13;11.82;;;5.97;;
28625;SDS011;18905;42.668;23.364;2023-07-02T11:02:39;15.07;;;7.60;;
28625;SDS011;18905;42.668;23.364;2023-07-02T11:05:05;12.60;;;7.25;;
28625;SDS011;18905;42.668;23.364;2023-07-02T11:07:32;11.65;;;6.72;;
28625;SDS011;18905;42.668;23.364;2023-07-02T11:09:58;10.65;;;6.10;;
28625;SDS011;18905;42.668;23.364;2023-07-02T11:12:27;8.68;;;5.82;;
28625;SDS011;18905;42.668;23.364;2023-07-02T11:15:06;13.20;;;6.90;;
28625;SDS011;18905;42.668;23.364;2023-07-02T11:17:35;10.93;;;6.97;;
28625;SDS011;18905;42.668;23.364;2023-07-02T11:20:01;10.35;;;6.07;;
28625;SDS011;18905;42.668;23.364;2023-07-02T11:22:34;10.05;;;6.07;;
28625;SDS011;18905;42.668;23.364;2023-07-02T11:25:15;10.02;;;5.85;;
28625;SDS011;18905;42.668;23.364;2023-07-02T11:27:42;15.13;;;6.32;;
28625;SDS011;18905;42.668;23.364;2023-07-02T11:30:08;15.50;;;6.65;;
28625;SDS011;18905;42.668;23.364;2023-07-02T11:32:35;13.23;;;8.02;;
28625;SDS011;18905;42.668;23.364;2023-07-02T11:35:15;25.30;;;17.13;;
28625;SDS011;18905;42.668;23.364;2023-07-02T11:37:41;15.82;;;10.07;;
28625;SDS011;18905;42.668;23.364;2023-07-02T11:40:07;17.45;;;11.13;;
28625;SDS011;18905;42.668;23.364;2023-07-02T11:42:33;16.00;;;10.63;;
28625;SDS011;18905;42.668;23.364;2023-07-02T11:44:58;11.35;;;6.85;;
28625;SDS011;18905;42.668;23.364;2023-07-02T11:47:24;19.38;;;11.27;;
28625;SDS011;18905;42.668;23.364;2023-07-02T11:49:50;14.27;;;10.07;;
28625;SDS011;18905;42.668;23.364;2023-07-02T11:52:15;11.10;;;7.15;;
28625;SDS011;18905;42.668;23.364;2023-07-02T11:54:41;15.15;;;5.80;;
28625;SDS011;18905;42.668;23.364;2023-07-02T11:57:06;19.27;;;12.40;;
28625;SDS011;18905;42.668;23.364;2023-07-02T11:59:31;10.38;;;5.65;;
28625;SDS011;18905;42.668;23.364;2023-07-02T12:01:57;16.42;;;8.68;;
28625;SDS011;18905;42.668;23.364;2023-07-02T12:04:22;11.82;;;7.45;;
28625;SDS011;18905;42.668;23.364;2023-07-02T12:06:48;8.98;;;5.72;;
28625;SDS011;18905;42.668;23.364;2023-07-02T12:09:13;12.43;;;6.53;;
28625;SDS011;18905;42.668;23.364;2023-07-02T12:11:38;9.50;;;6.32;;
28625;SDS011;18905;42.668;23.364;2023-07-02T12:14:04;14.10;;;6.53;;
28625;SDS011;18905;42.668;23.364;2023-07-02T12:16:29;15.95;;;11.18;;
28625;SDS011;18905;42.668;23.364;2023-07-02T12:18:54;17.48;;;9.95;;
28625;SDS011;18905;42.668;23.364;2023-07-02T12:21:20;10.30;;;7.22;;
28625;SDS011;18905;42.668;23.364;2023-07-02T12:23:45;13.02;;;8.18;;
28625;SDS011;18905;42.668;23.364;2023-07-02T12:26:11;6.95;;;5.00;;
28625;SDS011;18905;42.668;23.364;2023-07-02T12:28:36;9.85;;;5.72;;
28625;SDS011;18905;42.668;23.364;2023-07-02T12:31:01;7.70;;;5.15;;
28625;SDS011;18905;42.668;23.364;2023-07-02T12:33:27;11.15;;;5.78;;
28625;SDS011;18905;42.668;23.364;2023-07-02T12:35:53;7.35;;;5.20;;
28625;SDS011;18905;42.668;23.364;2023-07-02T12:38:18;8.85;;;5.70;;
28625;SDS011;18905;42.668;23.364;2023-07-02T12:40:43;8.57;;;5.78;;
28625;SDS011;18905;42.668;23.364;2023-07-02T12:43:09;8.20;;;5.47;;
28625;SDS011;18905;42.668;23.364;2023-07-02T12:45:34;8.15;;;5.03;;
28625;SDS011;18905;42.668;23.364;2023-07-02T12:48:00;8.00;;;5.30;;
28625;SDS011;18905;42.668;23.364;2023-07-02T12:50:25;8.35;;;5.68;;
28625;SDS011;18905;42.668;23.364;2023-07-02T12:52:50;8.20;;;5.38;;
28625;SDS011;18905;42.668;23.364;2023-07-02T12:55:16;11.68;;;5.95;;
28625;SDS011;18905;42.668;23.364;2023-07-02T12:57:41;9.07;;;6.00;;
28625;SDS011;18905;42.668;23.364;2023-07-02T13:00:07;13.35;;;5.97;;
28625;SDS011;18905;42.668;23.364;2023-07-02T13:02:33;7.53;;;5.60;;
28625;SDS011;18905;42.668;23.364;2023-07-02T13:04:59;10.75;;;6.30;;
28625;SDS011;18905;42.668;23.364;2023-07-02T13:07:25;7.68;;;5.72;;
28625;SDS011;18905;42.668;23.364;2023-07-02T13:09:50;8.52;;;5.85;;
28625;SDS011;18905;42.668;23.364;2023-07-02T13:12:16;9.40;;;6.38;;
28625;SDS011;18905;42.668;23.364;2023-07-02T13:14:43;9.00;;;5.60;;
28625;SDS011;18905;42.668;23.364;2023-07-02T13:17:08;8.20;;;5.93;;
28625;SDS011;18905;42.668;23.364;2023-07-02T13:19:33;10.65;;;5.70;;
28625;SDS011;18905;42.668;23.364;2023-07-02T13:22:00;11.63;;;6.07;;
28625;SDS011;18905;42.668;23.364;2023-07-02T13:24:27;10.43;;;5.53;;
28625;SDS011;18905;42.668;23.364;2023-07-02T13:26:57;9.20;;;5.75;;
28625;SDS011;18905;42.668;23.364;2023-07-02T13:29:22;8.38;;;5.28;;
28625;SDS011;18905;42.668;23.364;2023-07-02T13:31:47;13.68;;;6.00;;
28625;SDS011;18905;42.668;23.364;2023-07-02T13:34:13;9.43;;;5.97;;
28625;SDS011;18905;42.668;23.364;2023-07-02T13:36:38;12.02;;;5.93;;
28625;SDS011;18905;42.668;23.364;2023-07-02T13:39:04;8.07;;;5.97;;
28625;SDS011;18905;42.668;23.364;2023-07-02T13:41:29;10.15;;;5.85;;
28625;SDS011;18905;42.668;23.364;2023-07-02T13:43:55;9.75;;;5.60;;
28625;SDS011;18905;42.668;23.364;2023-07-02T13:46:21;8.65;;;5.75;;
28625;SDS011;18905;42.668;23.364;2023-07-02T13:48:46;9.35;;;5.60;;
28625;SDS011;18905;42.668;23.364;2023-07-02T13:51:13;8.73;;;5.88;;
28625;SDS011;18905;42.668;23.364;2023-07-02T13:53:38;9.18;;;5.80;;
28625;SDS011;18905;42.668;23.364;2023-07-02T13:56:03;9.13;;;6.63;;
28625;SDS011;18905;42.668;23.364;2023-07-02T14:01:22;9.75;;;6.82;;
28625;SDS011;18905;42.668;23.364;2023-07-02T14:03:49;11.48;;;5.97;;
28625;SDS011;18905;42.668;23.364;2023-07-02T14:06:14;10.07;;;6.30;;
28625;SDS011;18905;42.668;23.364;2023-07-02T14:08:40;10.70;;;6.43;;
28625;SDS011;18905;42.668;23.364;2023-07-02T14:11:06;12.18;;;7.28;;
28625;SDS011;18905;42.668;23.364;2023-07-02T14:13:31;13.15;;;7.32;;
28625;SDS011;18905;42.668;23.364;2023-07-02T14:15:57;11.32;;;6.80;;
28625;SDS011;18905;42.668;23.364;2023-07-02T14:18:23;16.77;;;9.55;;
28625;SDS011;18905;42.668;23.364;2023-07-02T14:20:49;11.90;;;6.75;;
28625;SDS011;18905;42.668;23.364;2023-07-02T14:23:14;9.63;;;7.13;;
28625;SDS011;18905;42.668;23.364;2023-07-02T14:25:39;9.90;;;6.65;;